Time;durP1;ratioP1;P1;durP2;ratioP2;P2;SDS_P1;SDS_P2;PMS_P1;PMS_P2;Temp;Humidity;BMP_temperature;BMP_pressure;BME280_temperature;BME280_humidity;BME280_pressure;Samples;Min_cycle;Max_cycle;Signal;HPM_P1;HPM_P2
2022/08/16 00:01:37;;;;;;;;;;;;;;;25.82;44.67;98874.56;4361678;32;35457;-79
2022/08/16 00:04:07;;;;;;;;;;;;;;;26.02;44.60;98864.16;4353688;32;34423;-72
2022/08/16 00:06:36;;;;;;;;;;;;;;;25.50;45.26;98877.59;4355875;32;33438;-82
2022/08/16 00:09:05;;;;;;;;;;;;;;;25.32;45.60;98877.28;4346478;32;34230;-82
2022/08/16 00:11:33;;;;;;;;;;;;;;;25.14;46.24;98885.25;4357112;32;33783;-77
2022/08/16 00:14:01;;;;;;;;;;;;;;;25.38;45.58;98883.34;4358793;32;34995;-82
2022/08/16 00:16:35;;;;;;;;;;;;;;;25.85;44.95;98882.13;4346486;32;34331;-69
2022/08/16 00:19:23;;;;;;;;;;;;;;;25.75;45.07;98889.13;4349048;32;32933;-69
2022/08/16 00:21:54;;;;;;;;;;;;;;;25.77;45.09;98878.47;4357943;32;34417;-70
2022/08/16 00:24:33;;;;;;;;;;;;;;;25.78;45.18;98882.81;4359659;32;34242;-69
2022/08/16 00:27:01;;;;;;;;;;;;;;;25.41;46.01;98885.38;4357208;32;33454;-70
2022/08/16 00:29:28;;;;;;;;;;;;;;;25.30;46.17;98887.97;4342801;32;33091;-69
2022/08/16 00:31:56;;;;;;;;;;;;;;;25.62;45.81;98896.06;4346431;32;34325;-68
2022/08/16 00:34:32;;;;;;;;;;;;;;;25.73;45.51;98887.91;4345381;32;34021;-70
2022/08/16 00:37:20;;;;;;;;;;;;;;;25.63;45.68;98877.41;4352628;32;34287;-68
2022/08/16 00:39:52;;;;;;;;;;;;;;;25.08;46.94;98888.72;4354824;32;34951;-68
2022/08/16 00:42:25;;;;;;;;;;;;;;;25.16;46.95;98891.25;4355087;32;35788;-70
2022/08/16 00:45:04;;;;;;;;;;;;;;;25.24;46.92;98889.44;4355894;32;34722;-68
2022/08/16 00:47:35;;;;;;;;;;;;;;;25.35;46.71;98893.19;4344895;32;33333;-71
2022/08/16 00:50:03;;;;;;;;;;;;;;;25.24;46.92;98889.44;4339393;33;35581;-79
2022/08/16 00:52:38;;;;;;;;;;;;;;;25.26;46.90;98886.28;4348972;32;34400;-70
2022/08/16 00:55:18;;;;;;;;;;;;;;;25.17;47.19;98892.84;4347191;33;34210;-68
2022/08/16 00:57:45;;;;;;;;;;;;;;;24.71;48.20;98892.75;4333938;33;32823;-71
2022/08/16 01:00:28;;;;;;;;;;;;;;;24.99;47.68;98897.25;4350748;32;34975;-80
2022/08/16 01:02:57;;;;;;;;;;;;;;;25.15;47.10;98897.97;4349176;32;34434;-69
2022/08/16 01:05:24;;;;;;;;;;;;;;;24.54;48.49;98893.97;4346793;32;34144;-72
2022/08/16 01:07:52;;;;;;;;;;;;;;;24.36;48.83;98896.31;4358450;32;32990;-78
2022/08/16 01:10:25;;;;;;;;;;;;;;;24.60;48.35;98897.25;4359024;32;34898;-68
2022/08/16 01:13:20;;;;;;;;;;;;;;;24.31;48.99;98898.56;4340603;32;32604;-69
2022/08/16 01:16:00;;;;;;;;;;;;;;;24.50;48.63;98906.16;4358891;32;34438;-69
2022/08/16 01:18:30;;;;;;;;;;;;;;;24.34;48.83;98906.97;4339453;32;33460;-68
2022/08/16 01:21:14;;;;;;;;;;;;;;;24.63;48.57;98904.84;4354341;32;33716;-70
2022/08/16 01:23:59;;;;;;;;;;;;;;;24.70;48.22;98904.19;4338813;32;35323;-70
2022/08/16 01:26:32;;;;;;;;;;;;;;;24.44;48.69;98893.69;4338572;32;34972;-68
2022/08/16 01:29:03;;;;;;;;;;;;;;;24.61;48.51;98900.84;4359990;32;33742;-68
2022/08/16 01:31:31;;;;;;;;;;;;;;;24.27;49.02;98898.47;4346009;32;35072;-69
2022/08/16 01:34:04;;;;;;;;;;;;;;;24.51;48.73;98904.97;4345586;32;33810;-69
2022/08/16 01:36:33;;;;;;;;;;;;;;;24.56;48.39;98901.94;4356332;32;34382;-68
2022/08/16 01:39:06;;;;;;;;;;;;;;;24.53;48.48;98897.09;4357701;32;33263;-67
2022/08/16 01:41:38;;;;;;;;;;;;;;;24.23;49.27;98896.78;4339606;32;35109;-68
2022/08/16 01:44:10;;;;;;;;;;;;;;;24.31;48.98;98898.56;4348237;32;34503;-77
2022/08/16 01:46:45;;;;;;;;;;;;;;;24.21;49.17;98899.94;4357400;32;36185;-68
2022/08/16 01:49:17;;;;;;;;;;;;;;;24.02;49.69;98897.09;4339561;32;33715;-76
2022/08/16 01:51:55;;;;;;;;;;;;;;;23.90;49.88;98901.56;4342460;32;35107;-78
2022/08/16 01:54:24;;;;;;;;;;;;;;;24.10;49.58;98898.84;4343011;32;34402;-68
2022/08/16 01:56:58;;;;;;;;;;;;;;;24.29;49.11;98900.88;4356553;32;34294;-82
2022/08/16 01:59:26;;;;;;;;;;;;;;;24.14;49.49;98900.56;4357770;32;33442;-69
2022/08/16 02:01:53;;;;;;;;;;;;;;;24.26;49.21;98896.87;4338155;32;34256;-68
2022/08/16 02:04:27;;;;;;;;;;;;;;;23.98;49.93;98897.00;4344025;32;34281;-68
2022/08/16 02:07:17;;;;;;;;;;;;;;;24.08;49.78;98895.66;4358859;32;34180;-69
2022/08/16 02:09:45;;;;;;;;;;;;;;;23.78;50.61;98901.69;4362393;32;34069;-71
2022/08/16 02:12:29;;;;;;;;;;;;;;;23.84;50.39;98907.75;4361235;32;34128;-70
2022/08/16 02:15:17;;;;;;;;;;;;;;;24.16;49.56;98902.97;4361122;32;33777;-68
2022/08/16 02:17:55;;;;;;;;;;;;;;;24.36;49.01;98907.41;4344824;32;34063;-75
2022/08/16 02:20:23;;;;;;;;;;;;;;;24.07;49.85;98899.59;4341343;32;34346;-68
2022/08/16 02:22:55;;;;;;;;;;;;;;;23.89;50.45;98882.56;4357124;32;34353;-69
2022/08/16 02:25:22;;;;;;;;;;;;;;;23.75;50.71;98894.03;4372780;32;34571;-69
2022/08/16 02:27:50;;;;;;;;;;;;;;;23.56;51.17;98889.22;4350842;32;34973;-69
2022/08/16 02:30:20;;;;;;;;;;;;;;;23.23;51.79;98890.34;4360156;32;33930;-72
2022/08/16 02:33:08;;;;;;;;;;;;;;;23.30;51.62;98892.50;4357273;32;33965;-68
2022/08/16 02:35:36;;;;;;;;;;;;;;;23.34;51.56;98893.41;4359832;32;35413;-69
2022/08/16 02:38:24;;;;;;;;;;;;;;;23.61;51.00;98893.69;4358387;32;34950;-70
2022/08/16 02:40:53;;;;;;;;;;;;;;;23.76;50.53;98898.47;4336461;32;33963;-69
2022/08/16 02:43:24;;;;;;;;;;;;;;;23.80;50.36;98891.06;4360394;32;34332;-69
2022/08/16 02:45:55;;;;;;;;;;;;;;;23.45;51.37;98894.47;4346993;32;34457;-69
2022/08/16 02:48:23;;;;;;;;;;;;;;;23.10;52.21;98892.38;4346598;32;34679;-69
2022/08/16 02:50:58;;;;;;;;;;;;;;;23.47;51.53;98885.81;4358762;32;34389;-69
2022/08/16 02:53:41;;;;;;;;;;;;;;;23.55;51.00;98885.66;4360638;32;34339;-67
2022/08/16 02:56:11;;;;;;;;;;;;;;;23.48;51.22;98879.94;4347528;32;34909;-70
2022/08/16 02:58:42;;;;;;;;;;;;;;;23.14;52.03;98884.97;4346535;32;34796;-69
2022/08/16 03:01:11;;;;;;;;;;;;;;;23.05;52.18;98889.06;4345889;32;33261;-70
2022/08/16 03:04:00;;;;;;;;;;;;;;;23.05;52.18;98891.84;4353845;32;33969;-68
2022/08/16 03:06:47;;;;;;;;;;;;;;;23.37;51.58;98892.69;4354588;32;34706;-67
2022/08/16 03:09:17;;;;;;;;;;;;;;;23.18;51.97;98892.59;4346640;33;34292;-70
2022/08/16 03:11:46;;;;;;;;;;;;;;;23.37;51.49;98892.69;4351929;32;33338;-69
2022/08/16 03:14:13;;;;;;;;;;;;;;;23.30;51.54;98898.03;4362310;32;35088;-77
2022/08/16 03:16:52;;;;;;;;;;;;;;;22.90;52.46;98891.41;4360398;32;34341;-68
2022/08/16 03:19:28;;;;;;;;;;;;;;;23.25;51.89;98892.75;4359177;32;34052;-74
2022/08/16 03:22:16;;;;;;;;;;;;;;;23.28;51.81;98892.03;4359319;32;33181;-69
2022/08/16 03:24:59;;;;;;;;;;;;;;;23.11;52.18;98894.00;4339024;32;33394;-69
2022/08/16 03:27:28;;;;;;;;;;;;;;;23.28;51.63;98905.88;4345659;32;34648;-73
2022/08/16 03:30:03;;;;;;;;;;;;;;;23.14;52.13;98911.84;4360115;32;34358;-69
2022/08/16 03:32:45;;;;;;;;;;;;;;;22.87;52.78;98908.72;4360176;32;34174;-69
2022/08/16 03:35:14;;;;;;;;;;;;;;;22.85;52.70;98912.97;4342019;32;33331;-68
2022/08/16 03:37:45;;;;;;;;;;;;;;;22.74;53.14;98923.72;4341449;32;34260;-83
2022/08/16 03:40:31;;;;;;;;;;;;;;;22.95;52.62;98920.75;4352008;32;34343;-68
2022/08/16 03:43:00;;;;;;;;;;;;;;;23.10;52.22;98927.53;4345748;32;33293;-68
2022/08/16 03:45:51;;;;;;;;;;;;;;;22.85;52.88;98935.09;4356078;32;35085;-68
2022/08/16 03:48:22;;;;;;;;;;;;;;;22.97;52.79;98929.50;4344830;33;34019;-68
2022/08/16 03:51:08;;;;;;;;;;;;;;;23.19;52.27;98927.37;4353909;32;34233;-67
2022/08/16 03:53:36;;;;;;;;;;;;;;;23.09;52.45;98928.72;4345227;32;33145;-69
2022/08/16 03:56:06;;;;;;;;;;;;;;;22.98;52.83;98924.78;4348554;32;35025;-68
2022/08/16 03:58:34;;;;;;;;;;;;;;;23.08;52.83;98930.66;4347049;32;33849;-72
2022/08/16 04:01:04;;;;;;;;;;;;;;;23.12;52.47;98937.09;4362966;32;33983;-68
2022/08/16 04:03:32;;;;;;;;;;;;;;;23.01;52.95;98938.75;4363537;32;33275;-67
2022/08/16 04:06:02;;;;;;;;;;;;;;;22.67;53.71;98934.56;4361603;32;34366;-68
2022/08/16 04:08:30;;;;;;;;;;;;;;;22.38;54.43;98938.44;4361171;32;35335;-69
2022/08/16 04:11:02;;;;;;;;;;;;;;;22.22;55.12;98939.13;4359973;32;34302;-69
2022/08/16 04:13:31;;;;;;;;;;;;;;;21.62;57.33;98938.72;4356266;32;34056;-68
2022/08/16 04:16:19;;;;;;;;;;;;;;;22.15;55.90;98940.84;4349462;32;34119;-69
2022/08/16 04:18:55;;;;;;;;;;;;;;;22.50;54.75;98939.22;4342482;32;34509;-69
2022/08/16 04:21:31;;;;;;;;;;;;;;;22.79;54.24;98948.38;4365057;32;34442;-69
2022/08/16 04:23:59;;;;;;;;;;;;;;;22.88;54.00;98946.25;4346135;32;33415;-69
2022/08/16 04:26:26;;;;;;;;;;;;;;;23.20;53.69;98953.91;4345888;32;34876;-69
2022/08/16 04:28:59;;;;;;;;;;;;;;;23.25;53.76;98950.88;4363092;32;34357;-68
2022/08/16 04:31:47;;;;;;;;;;;;;;;23.52;52.92;98952.81;4337994;32;33308;-69
2022/08/16 04:34:26;;;;;;;;;;;;;;;23.24;53.78;98946.50;4340347;32;34082;-68
2022/08/16 04:36:53;;;;;;;;;;;;;;;23.14;54.60;98956.13;4344405;32;33982;-68
2022/08/16 04:39:23;;;;;;;;;;;;;;;23.38;53.88;98946.88;4363166;32;34974;-68
2022/08/16 04:42:03;;;;;;;;;;;;;;;23.61;53.26;98944.34;4357457;32;34958;-69
2022/08/16 04:44:37;;;;;;;;;;;;;;;23.86;52.79;98946.97;4347859;32;33286;-69
2022/08/16 04:47:24;;;;;;;;;;;;;;;23.88;52.12;98950.19;4347878;32;33439;-69
2022/08/16 04:50:00;;;;;;;;;;;;;;;24.13;51.10;98961.91;4348655;32;33653;-68
2022/08/16 04:52:28;;;;;;;;;;;;;;;23.57;52.63;98967.56;4338215;32;33786;-77
2022/08/16 04:55:12;;;;;;;;;;;;;;;23.58;52.06;98958.88;4363444;32;33362;-68
2022/08/16 04:57:42;;;;;;;;;;;;;;;23.53;52.46;98961.91;4339815;33;34188;-69
2022/08/16 05:00:11;;;;;;;;;;;;;;;23.57;52.42;98956.50;4340078;32;35258;-69
2022/08/16 05:03:04;;;;;;;;;;;;;;;23.84;52.13;98963.13;4356121;32;33981;-82
2022/08/16 05:05:37;;;;;;;;;;;;;;;24.12;51.91;98963.84;4357172;32;33482;-69
2022/08/16 05:08:12;;;;;;;;;;;;;;;23.90;53.07;98965.28;4340748;32;34080;-70
2022/08/16 05:11:01;;;;;;;;;;;;;;;24.16;52.21;98964.75;4354637;32;34309;-69
2022/08/16 05:13:32;;;;;;;;;;;;;;;23.72;53.12;98967.56;4355516;32;35083;-71
2022/08/16 05:16:11;;;;;;;;;;;;;;;23.57;53.52;98975.88;4348435;32;34287;-68
2022/08/16 05:18:50;;;;;;;;;;;;;;;23.90;52.83;98979.13;4350888;32;34964;-69
2022/08/16 05:21:18;;;;;;;;;;;;;;;23.61;53.29;98994.19;4361244;32;34580;-69
2022/08/16 05:23:49;;;;;;;;;;;;;;;23.33;55.21;98991.44;4345633;32;35055;-69
2022/08/16 05:26:23;;;;;;;;;;;;;;;23.69;54.36;98995.16;4361185;32;31717;-68
2022/08/16 05:28:58;;;;;;;;;;;;;;;23.74;53.21;99000.47;4362759;32;34379;-70
2022/08/16 05:31:26;;;;;;;;;;;;;;;23.85;53.26;98993.25;4361413;32;34426;-69
2022/08/16 05:33:58;;;;;;;;;;;;;;;24.04;52.92;99000.06;4344686;32;34208;-70
2022/08/16 05:36:25;;;;;;;;;;;;;;;23.80;52.43;98990.78;4361051;32;33256;-82
2022/08/16 05:39:07;;;;;;;;;;;;;;;23.90;52.35;98994.97;4362821;32;34989;-82
2022/08/16 05:41:36;;;;;;;;;;;;;;;23.60;52.91;98997.31;4345095;32;34287;-80
2022/08/16 05:44:15;;;;;;;;;;;;;;;23.89;53.84;98998.91;4362623;32;34368;-82
2022/08/16 05:46:51;;;;;;;;;;;;;;;24.14;52.68;98994.78;4359030;32;33509;-82
2022/08/16 05:49:19;;;;;;;;;;;;;;;24.90;50.44;99002.09;4373359;32;34116;-82
2022/08/16 05:51:49;;;;;;;;;;;;;;;25.40;48.76;99010.69;4369077;32;34338;-71
2022/08/16 05:54:16;;;;;;;;;;;;;;;25.60;47.54;98994.84;4347037;32;34154;-74
2022/08/16 05:56:53;;;;;;;;;;;;;;;25.67;47.30;98997.75;4350139;32;33361;-81
2022/08/16 05:59:21;;;;;;;;;;;;;;;25.22;48.11;99002.00;4361770;32;33893;-82
2022/08/16 06:01:50;;;;;;;;;;;;;;;25.71;46.93;99001.38;4344418;32;34463;-71
2022/08/16 06:04:20;;;;;;;;;;;;;;;25.63;47.81;98997.66;4338955;32;34348;-82
2022/08/16 06:07:05;;;;;;;;;;;;;;;25.41;47.77;98998.44;4361979;32;33431;-69
2022/08/16 06:09:50;;;;;;;;;;;;;;;25.93;46.89;99005.38;4359748;32;34978;-69
2022/08/16 06:12:18;;;;;;;;;;;;;;;26.18;46.39;99003.84;4362279;32;34266;-75
2022/08/16 06:14:57;;;;;;;;;;;;;;;26.25;45.98;99002.34;4360881;32;32713;-68
2022/08/16 06:17:26;;;;;;;;;;;;;;;25.84;47.61;98993.69;4370704;32;34281;-70
2022/08/16 06:20:13;;;;;;;;;;;;;;;25.09;50.01;98990.22;4363675;32;34204;-82
2022/08/16 06:22:40;;;;;;;;;;;;;;;25.32;49.70;98995.87;4348209;32;35416;-69
2022/08/16 06:25:14;;;;;;;;;;;;;;;25.85;48.41;98996.06;4361495;32;34254;-69
2022/08/16 06:27:42;;;;;;;;;;;;;;;25.75;47.72;98985.59;4363525;32;34116;-70
2022/08/16 06:30:25;;;;;;;;;;;;;;;25.74;48.11;98989.53;4367800;32;34816;-69
2022/08/16 06:32:56;;;;;;;;;;;;;;;25.64;49.04;98984.56;4362376;32;34232;-71
2022/08/16 06:35:24;;;;;;;;;;;;;;;25.58;49.03;98981.31;4362157;32;33863;-71
2022/08/16 06:38:06;;;;;;;;;;;;;;;25.31;49.27;98988.72;4362525;32;33483;-70
2022/08/16 06:40:53;;;;;;;;;;;;;;;25.50;48.31;98971.22;4358230;32;33715;-71
2022/08/16 06:43:21;;;;;;;;;;;;;;;25.97;47.01;98973.69;4361873;32;34336;-70
2022/08/16 06:45:55;;;;;;;;;;;;;;;26.11;46.86;98963.97;4360340;32;34702;-74
2022/08/16 06:48:24;;;;;;;;;;;;;;;26.06;46.97;98958.75;4345150;32;32025;-79
2022/08/16 06:51:08;;;;;;;;;;;;;;;26.31;45.71;98953.59;4360958;32;34227;-72
2022/08/16 06:53:36;;;;;;;;;;;;;;;26.25;41.07;98958.66;4360748;32;35265;-79
2022/08/16 06:56:05;;;;;;;;;;;;;;;26.48;40.23;98946.66;4363719;32;34344;-69
2022/08/16 06:58:51;;;;;;;;;;;;;;;26.63;40.35;98958.84;4363608;32;33566;-72
2022/08/16 07:01:19;;;;;;;;;;;;;;;26.70;40.08;98962.53;4354126;32;34356;-74
2022/08/16 07:04:07;;;;;;;;;;;;;;;26.86;40.75;98967.91;4364330;32;35350;-78
2022/08/16 07:06:39;;;;;;;;;;;;;;;27.07;39.69;98964.59;4365042;32;34082;-68
2022/08/16 07:09:11;;;;;;;;;;;;;;;27.19;41.02;98964.34;4364392;32;33117;-69
2022/08/16 07:11:39;;;;;;;;;;;;;;;27.11;41.43;98984.94;4351324;32;33974;-70
2022/08/16 07:14:16;;;;;;;;;;;;;;;26.82;40.14;98986.53;4363666;32;35598;-68
2022/08/16 07:16:54;;;;;;;;;;;;;;;27.22;40.79;98993.44;4363499;32;33970;-69
2022/08/16 07:19:25;;;;;;;;;;;;;;;27.19;40.99;98994.16;4363436;32;32864;-67
2022/08/16 07:22:12;;;;;;;;;;;;;;;26.25;45.63;99000.38;4363920;32;35108;-70
2022/08/16 07:25:00;;;;;;;;;;;;;;;26.12;49.07;99010.87;4353216;32;35444;-69
2022/08/16 07:27:27;;;;;;;;;;;;;;;25.46;53.06;99021.12;4364219;32;34899;-70
2022/08/16 07:30:02;;;;;;;;;;;;;;;24.96;55.88;99023.66;4363713;32;33582;-68
2022/08/16 07:32:50;;;;;;;;;;;;;;;25.56;54.16;99028.88;4352539;32;34225;-69
2022/08/16 07:35:20;;;;;;;;;;;;;;;25.79;53.31;99017.81;4363419;32;35478;-69
2022/08/16 07:37:48;;;;;;;;;;;;;;;25.83;53.78;99022.62;4349682;32;34197;-69
2022/08/16 07:40:17;;;;;;;;;;;;;;;26.09;53.14;99030.25;4368136;32;34293;-80
2022/08/16 07:42:51;;;;;;;;;;;;;;;25.96;53.82;99029.62;4349745;32;34330;-79
2022/08/16 07:45:19;;;;;;;;;;;;;;;26.14;52.88;99039.13;4350609;32;34876;-77
2022/08/16 07:47:48;;;;;;;;;;;;;;;26.28;52.29;99035.75;4349877;32;33511;-81
2022/08/16 07:50:17;;;;;;;;;;;;;;;26.09;52.74;99027.50;4362962;32;33290;-76
2022/08/16 07:53:05;;;;;;;;;;;;;;;26.31;52.50;99037.81;4355975;32;34298;-82
2022/08/16 07:55:35;;;;;;;;;;;;;;;26.49;50.85;99029.75;4378067;32;34132;-75
2022/08/16 07:58:14;;;;;;;;;;;;;;;26.40;51.18;99035.56;4378410;32;34397;-77
2022/08/16 08:01:04;;;;;;;;;;;;;;;26.50;51.33;99034.16;4378160;32;33421;-79
2022/08/16 08:03:39;;;;;;;;;;;;;;;26.90;50.00;99029.19;4365694;32;34255;-71
2022/08/16 08:06:18;;;;;;;;;;;;;;;27.00;49.76;99028.53;4365154;32;34420;-69
2022/08/16 08:08:46;;;;;;;;;;;;;;;26.62;50.54;99038.72;4378144;32;33665;-74
2022/08/16 08:11:19;;;;;;;;;;;;;;;26.84;49.30;99036.25;4365757;32;33754;-70
2022/08/16 08:13:48;;;;;;;;;;;;;;;26.95;48.52;99043.56;4363119;32;33983;-79
2022/08/16 08:16:18;;;;;;;;;;;;;;;27.03;48.22;99046.47;4362450;32;34628;-79
2022/08/16 08:18:47;;;;;;;;;;;;;;;27.29;46.66;99040.09;4363235;32;33787;-76
2022/08/16 08:21:23;;;;;;;;;;;;;;;27.28;46.84;99041.25;4365207;32;33200;-80
2022/08/16 08:23:56;;;;;;;;;;;;;;;27.42;45.45;99050.59;4369150;32;35127;-75
2022/08/16 08:26:24;;;;;;;;;;;;;;;27.54;45.01;99046.75;4362862;32;34227;-73
2022/08/16 08:28:51;;;;;;;;;;;;;;;27.41;45.00;99056.56;4349575;32;34451;-76
2022/08/16 08:31:20;;;;;;;;;;;;;;;27.87;43.56;99052.72;4364718;32;34225;-70
2022/08/16 08:33:48;;;;;;;;;;;;;;;27.95;43.31;99059.97;4376420;32;33958;-77
2022/08/16 08:36:23;;;;;;;;;;;;;;;27.77;43.81;99057.75;4377547;32;35401;-67
2022/08/16 08:39:03;;;;;;;;;;;;;;;27.77;42.44;99060.53;4365659;32;34391;-79
2022/08/16 08:41:40;;;;;;;;;;;;;;;27.92;43.49;99057.94;4365574;32;33404;-79
2022/08/16 08:44:09;;;;;;;;;;;;;;;27.60;42.74;99056.37;4362319;32;34049;-67
2022/08/16 08:47:01;;;;;;;;;;;;;;;27.60;42.93;99052.78;4375217;32;35291;-73
2022/08/16 08:49:30;;;;;;;;;;;;;;;28.02;41.36;99046.09;4364789;32;34663;-67
2022/08/16 08:52:18;;;;;;;;;;;;;;;28.68;40.77;99046.25;4368653;32;34177;-67
2022/08/16 08:55:07;;;;;;;;;;;;;;;28.74;41.46;99041.13;4363209;32;34047;-67
2022/08/16 08:57:39;;;;;;;;;;;;;;;28.38;42.14;99038.84;4361668;32;34433;-66
2022/08/16 09:00:11;;;;;;;;;;;;;;;29.28;39.92;99038.66;4350219;32;34928;-67
2022/08/16 09:02:41;;;;;;;;;;;;;;;29.09;39.96;99036.94;4349685;32;34149;-68
2022/08/16 09:05:12;;;;;;;;;;;;;;;29.58;38.96;99043.97;4349475;32;34261;-66
2022/08/16 09:07:42;;;;;;;;;;;;;;;29.89;39.74;99041.69;4356657;32;34929;-66
2022/08/16 09:10:28;;;;;;;;;;;;;;;29.50;41.37;99042.34;4366061;32;35094;-67
2022/08/16 09:12:57;;;;;;;;;;;;;;;29.82;40.14;99040.47;4377813;32;33386;-65
2022/08/16 09:15:25;;;;;;;;;;;;;;;30.22;38.90;99034.94;4367706;32;34811;-66
2022/08/16 09:18:00;;;;;;;;;;;;;;;30.43;37.92;99032.19;4362496;32;34663;-66
2022/08/16 09:20:48;;;;;;;;;;;;;;;30.71;39.36;99035.31;4377327;32;34996;-67
2022/08/16 09:23:27;;;;;;;;;;;;;;;30.81;35.33;99026.91;4364990;32;33848;-67
2022/08/16 09:25:54;;;;;;;;;;;;;;;31.41;35.48;99021.56;4377345;32;34397;-67
2022/08/16 09:28:21;;;;;;;;;;;;;;;31.54;33.62;99019.13;4368118;32;34400;-67
2022/08/16 09:31:13;;;;;;;;;;;;;;;31.58;33.34;99017.09;4351661;32;34027;-78
2022/08/16 09:33:41;;;;;;;;;;;;;;;31.76;31.78;99011.38;4349294;32;34172;-65
2022/08/16 09:36:09;;;;;;;;;;;;;;;31.48;31.26;99013.91;4370692;32;35087;-70
2022/08/16 09:38:56;;;;;;;;;;;;;;;31.54;32.22;99011.50;4362808;32;34317;-65
2022/08/16 09:41:26;;;;;;;;;;;;;;;32.15;32.04;99013.13;4361995;32;34191;-79
2022/08/16 09:43:54;;;;;;;;;;;;;;;31.49;31.66;99014.75;4350176;32;34156;-80
2022/08/16 09:46:42;;;;;;;;;;;;;;;31.98;30.24;99014.84;4362348;32;35151;-78
2022/08/16 09:49:16;;;;;;;;;;;;;;;32.23;30.41;99021.06;4348265;32;33396;-65
2022/08/16 09:51:47;;;;;;;;;;;;;;;32.49;29.58;99008.41;4348867;32;34075;-69
2022/08/16 09:54:15;;;;;;;;;;;;;;;32.93;29.68;99013.62;4362301;32;33367;-67
2022/08/16 09:56:47;;;;;;;;;;;;;;;32.59;29.01;99008.75;4362117;32;33939;-76
2022/08/16 09:59:23;;;;;;;;;;;;;;;33.19;28.83;99004.50;4362140;32;36034;-66
2022/08/16 10:01:51;;;;;;;;;;;;;;;33.19;30.05;99004.50;4348235;32;35050;-65
2022/08/16 10:04:21;;;;;;;;;;;;;;;32.16;29.73;98995.87;4364669;32;33119;-76
2022/08/16 10:07:00;;;;;;;;;;;;;;;32.18;29.76;98995.44;4362350;32;33319;-66
2022/08/16 10:09:38;;;;;;;;;;;;;;;33.01;28.84;98989.84;4364502;32;34589;-67
2022/08/16 10:15:16;;;;;;;;;;;;;;;32.08;29.70;98988.72;4370724;32;33066;-67
2022/08/16 10:17:44;;;;;;;;;;;;;;;33.23;28.56;98990.41;4348123;32;34269;-66
2022/08/16 10:20:33;;;;;;;;;;;;;;;33.68;26.90;98985.38;4350074;32;34443;-68
2022/08/16 10:23:04;;;;;;;;;;;;;;;32.97;27.79;98987.06;4361868;32;34928;-66
2022/08/16 10:25:39;;;;;;;;;;;;;;;32.76;27.66;98987.31;4362333;32;33098;-74
2022/08/16 10:28:28;;;;;;;;;;;;;;;32.84;26.84;98988.84;4350777;32;33423;-67
2022/08/16 10:30:59;;;;;;;;;;;;;;;33.46;27.07;98993.31;4348374;32;35198;-68
2022/08/16 10:33:30;;;;;;;;;;;;;;;34.33;24.67;98992.03;4362369;32;33771;-68
2022/08/16 10:36:01;;;;;;;;;;;;;;;34.42;25.37;98990.25;4376330;32;34043;-66
2022/08/16 10:38:30;;;;;;;;;;;;;;;34.81;24.64;98994.41;4365598;32;34414;-67
2022/08/16 10:41:04;;;;;;;;;;;;;;;34.81;23.45;98988.75;4348142;32;34037;-68
2022/08/16 10:43:34;;;;;;;;;;;;;;;34.91;23.36;98989.78;4351965;32;34209;-65
2022/08/16 10:46:02;;;;;;;;;;;;;;;34.79;23.92;98985.56;4361424;32;33392;-67
2022/08/16 10:48:51;;;;;;;;;;;;;;;34.90;23.48;98982.53;4360688;32;35140;-72
2022/08/16 10:51:18;;;;;;;;;;;;;;;35.26;24.57;98990.31;4365081;32;34649;-67
2022/08/16 10:53:45;;;;;;;;;;;;;;;34.26;25.68;98990.16;4363005;32;34378;-81
2022/08/16 10:56:13;;;;;;;;;;;;;;;35.23;24.19;98979.87;4360954;32;33535;-73
2022/08/16 10:59:00;;;;;;;;;;;;;;;35.59;23.23;98981.94;4366828;32;34134;-65
2022/08/16 11:01:47;;;;;;;;;;;;;;;35.71;22.87;98978.47;4362527;32;34978;-66
2022/08/16 11:04:34;;;;;;;;;;;;;;;34.26;24.87;98976.06;4362544;32;35067;-67
2022/08/16 11:07:22;;;;;;;;;;;;;;;34.99;24.89;98968.69;4352183;32;34522;-69
2022/08/16 11:10:10;;;;;;;;;;;;;;;34.95;25.25;98972.78;4364870;32;35174;-69
2022/08/16 11:12:47;;;;;;;;;;;;;;;35.61;23.22;98971.00;4345283;33;34302;-69
2022/08/16 11:15:19;;;;;;;;;;;;;;;35.32;24.26;98977.28;4347713;33;34608;-69
2022/08/16 11:17:49;;;;;;;;;;;;;;;35.67;24.07;98972.87;4349871;32;33175;-67
2022/08/16 11:20:36;;;;;;;;;;;;;;;36.18;21.54;98975.34;4362310;32;34052;-67
2022/08/16 11:23:09;;;;;;;;;;;;;;;34.82;23.32;98965.00;4349012;32;33899;-67
2022/08/16 11:25:37;;;;;;;;;;;;;;;34.46;23.47;98959.22;4348919;32;34927;-68
2022/08/16 11:28:24;;;;;;;;;;;;;;;35.14;23.69;98963.56;4351092;32;34025;-69
2022/08/16 11:31:11;;;;;;;;;;;;;;;35.77;22.81;98968.25;4362756;32;34924;-68
2022/08/16 11:33:39;;;;;;;;;;;;;;;35.28;23.81;98974.53;4364304;32;34360;-68
2022/08/16 11:36:22;;;;;;;;;;;;;;;35.09;22.63;98980.97;4364223;32;34343;-67
2022/08/16 11:38:55;;;;;;;;;;;;;;;33.01;25.55;98978.59;4351359;32;33592;-67
2022/08/16 11:41:27;;;;;;;;;;;;;;;32.88;28.03;98987.56;4350848;32;34349;-68
2022/08/16 11:43:57;;;;;;;;;;;;;;;32.81;29.07;98987.66;4363974;32;34606;-67
